SEASEATTLE-TACOMA INTL
METARs for airports near SEA, sorted by distance:
N 0 nm 432' KSEA 160153Z 34012KT 10SM SCT250 22/07 A3002
NE 4 nm 32' KRNT 160153Z 32008KT 10SM CLR 23/09 A3000
N 4 nm 21' KBFI 160153Z 30006KT 10SM CLR 21/07 A3000
SW 15 nm 294' KTIW 160153Z 04004KT 10SM CLR 20/08 A3001
W 18 nm 444' KPWT 160156Z 05010KT 10SM CLR 22/08 A3002
S 19 nm 322' KTCM 160158Z 35006KT 10SM CLR 22/07 A3001
S 20 nm 537' KPLU 160215Z VRB04KT 10SM CLR 21/06 A3002
SW 24 nm 301' KGRF 160158Z 34007KT 10SM CLR 23/08 A3000
N 27 nm 607' KPAE 160153Z 33004KT 10SM CLR 19/08 A3003
W 36 nm 272' KSHN 160153Z 25009KT 10SM CLR 22/09 A2999
SW 37 nm 207' KOLM 160154Z 35005KT 10SM CLR 24/08 A3000
N 43 nm 141' KAWO 160156Z 28008KT 10SM CLR 20/11 A3001
SW 53 nm 177' KCLS 160215Z 00000KT 10SM CLR 22/10 A3000
N 55 nm 47' KNUW 160156Z 25007KT 10SM FEW030 SCT250 13/08 A3007
NW 60 nm 13' KNOW 160215Z 30014KT 3SM BR BKN001 10/09 A3004
N 61 nm 145' KBVS 160215Z 29006KT 9SM CLR 19/09 A3002
NW 62 nm 291' KCLM 160153Z 35004KT 10SM CLR 16/09 A3004
NW 70 nm 112' KFHR 160153Z 25004KT 10SM CLR 17/09 A3003
SW 72 nm 17' KHQM 160153Z 27008KT 10SM BKN009 11/08 A3007
E 76 nm 1763' KELN 160153Z 31016G24KT 10SM CLR 25/02 A2992
N 79 nm 34' KORS 160215Z 00000KT 10SM CLR 19/09 A3001
N 81 nm 171' KBLI 160153Z 00000KT 10SM CLR 19/09 A3001
S 83 nm 20' KKLS 160156Z 00000KT 10SM CLR 21/12 A2999
NW 84 nm 64' CYYJ 160200Z 11006KT 30SM SCT250 20/08 A3001
E 85 nm 1248' KEAT 160155Z 19006KT 10SM CLR 28/01 A2986
SE 89 nm 1098' KYKM 160153Z 02004KT 10SM CLR 29/00 A2987
W 95 nm 193' KUIL 160153Z 29004KT 10SM CLR 13/09 A3006
TAFs for airports near SEA, sorted by distance:
N 0 nm 432' KSEA KSEA 152320Z 1600/1706 33009KT P6SM FEW250
  FM160300 35006KT P6SM SKC
  FM160700 02004KT P6SM SKC
  FM161300 VRB04KT P6SM FEW010
  FM161800 31004KT P6SM SKC
N 4 nm 21' KBFI KBFI 152320Z 1600/1624 30007KT P6SM FEW250
  FM160300 35006KT P6SM SKC
  FM160700 02004KT P6SM SKC
  FM161300 VRB04KT P6SM FEW013
  FM161800 30004KT P6SM SKC
W 18 nm 444' KPWT TAF KPWT 152320Z 1600/1624 04007KT P6SM SKC
  FM160600 03004KT P6SM SKC
  FM161300 VRB04KT P6SM BKN010
  FM161800 04006KT P6SM SCT010
  FM161900 04007KT P6SM SKC
S 19 nm 322' KTCM TAF KTCM 152100Z 1521/1703 35012KT 9999 FEW200 QNH3005INS
  BECMG 1604/1605 01004KT 9999 SKC QNH3002INS
  BECMG 1611/1612 VRB04KT 9999 SCT015 QNH2998INS
  BECMG 1613/1614 22004KT 4800 BR BKN015 QNH2999INS
  BECMG 1616/1617 35009KT 9999 NSW SCT030 QNH3001INS TX25/1600Z TN06/1614Z
SW 24 nm 301' KGRF TAF TAF KGRF 152100Z 1521/1703 30006KT 9999 FEW200 QNH3010INS
  BECMG 1603/1604 33008KT 9999 SKC QNH3001INS
  BECMG 1612/1613 28003KT 6000 BR SCT005 QNH3004INS
  TEMPO 1613/1616 3200 BR
  BECMG 1617/1618 30007KT 9999 NSW SKC QNH3004INS TX21/1521Z TN07/1613Z
N 27 nm 607' KPAE KPAE 152320Z 1600/1624 35010KT P6SM FEW250
  FM160300 35004KT P6SM SKC
  FM161200 01004KT P6SM BKN007
  FM161800 32005KT P6SM SCT015
  FM161900 34007KT P6SM SKC
SW 37 nm 207' KOLM KOLM 152320Z 1600/1624 36008KT P6SM SKC
  FM160500 VRB03KT P6SM SKC
  FM161100 20004KT P6SM OVC007
  FM161800 35005KT P6SM SKC
N 55 nm 47' KNUW TAF KNUW 1523/1623 27009KT 9999 FEW020 SCT250 QNH3005INS
  FM160100 22006KT 9999 FEW010 SCT250 QNH3001INS
  FM161100 22005KT 3200 BR BKN005 BKN250 QNH3000INS
  TEMPO 1611/1617 0800 FG VV002
  BECMG 1617/1618 25009KT 9999 FEW010 SCT050 BKN250 QNH2995INS
  FM162200 26012KT 9999 BKN050 BKN100 BKN250 QNH2993INS LAST NO
  AMDS AFT 1606 NEXT 1615 T09/1613Z T16/1622Z FS30020
NW 62 nm 291' KCLM KCLM 152320Z 1600/1624 33005KT P6SM SKC
  FM160200 30012KT P6SM SKC
  FM161000 30007KT 6SM BR OVC002
  FM161700 30007KT P6SM SCT020
  FM161800 28008KT P6SM SKC
SW 72 nm 17' KHQM KHQM 152320Z 1600/1624 26012KT P6SM FEW009 FEW250
  TEMPO 1600/1602 BKN010
  FM160200 26010KT P6SM OVC008
  FM160900 26007KT 4SM BR OVC006
  FM161800 24010KT P6SM BKN012
  FM162000 25015KT P6SM SCT020
N 81 nm 171' KBLI KBLI 152320Z 1600/1624 27005KT P6SM SKC
  FM160600 18009KT P6SM SKC
  FM161200 17005KT P6SM SKC
E 85 nm 1248' KEAT TAF KEAT 152320Z 1600/1624 VRB05KT P6SM SKC
  FM160600 30008KT P6SM SCT250
  FM161800 VRB05KT P6SM FEW250
SE 89 nm 1098' KYKM KYKM 152320Z 1600/1624 33008KT P6SM SKC
  FM160400 27005KT P6SM SKC
  FM161700 VRB05KT P6SM SKC

Shortcut to this page: http://wxbay.com.

Data may contain errors.